sensor_id;sensor_type;location;lat;lon;timestamp;P1;durP1;ratioP1;P2;durP2;ratioP2
62740;SDS011;48790;55.656;37.702;2022-09-13T00:00:28;16.20;;;10.40;;
62740;SDS011;48790;55.656;37.702;2022-09-13T00:02:53;19.77;;;10.60;;
62740;SDS011;48790;55.656;37.702;2022-09-13T00:05:19;17.70;;;10.40;;
62740;SDS011;48790;55.656;37.702;2022-09-13T00:07:47;15.80;;;10.18;;
62740;SDS011;48790;55.656;37.702;2022-09-13T00:10:14;19.02;;;10.32;;
62740;SDS011;48790;55.656;37.702;2022-09-13T00:12:40;17.92;;;10.63;;
62740;SDS011;48790;55.656;37.702;2022-09-13T00:15:07;15.18;;;10.10;;
62740;SDS011;48790;55.656;37.702;2022-09-13T00:17:34;14.05;;;9.90;;
62740;SDS011;48790;55.656;37.702;2022-09-13T00:20:00;19.65;;;10.45;;
62740;SDS011;48790;55.656;37.702;2022-09-13T00:22:26;13.93;;;10.15;;
62740;SDS011;48790;55.656;37.702;2022-09-13T00:24:53;17.08;;;10.70;;
62740;SDS011;48790;55.656;37.702;2022-09-13T00:27:19;15.10;;;10.48;;
62740;SDS011;48790;55.656;37.702;2022-09-13T00:29:45;15.77;;;10.00;;
62740;SDS011;48790;55.656;37.702;2022-09-13T00:32:11;24.25;;;11.00;;
62740;SDS011;48790;55.656;37.702;2022-09-13T00:34:39;16.20;;;10.35;;
62740;SDS011;48790;55.656;37.702;2022-09-13T00:37:05;16.77;;;10.35;;
62740;SDS011;48790;55.656;37.702;2022-09-13T00:39:31;16.92;;;10.35;;
62740;SDS011;48790;55.656;37.702;2022-09-13T00:41:57;16.45;;;10.45;;
62740;SDS011;48790;55.656;37.702;2022-09-13T00:47:07;19.27;;;11.07;;
62740;SDS011;48790;55.656;37.702;2022-09-13T00:49:35;21.27;;;10.43;;
62740;SDS011;48790;55.656;37.702;2022-09-13T00:52:04;16.63;;;10.80;;
62740;SDS011;48790;55.656;37.702;2022-09-13T00:54:33;17.27;;;10.38;;
62740;SDS011;48790;55.656;37.702;2022-09-13T00:57:03;18.30;;;11.38;;
62740;SDS011;48790;55.656;37.702;2022-09-13T00:59:34;16.60;;;10.63;;
62740;SDS011;48790;55.656;37.702;2022-09-13T01:02:02;22.67;;;11.20;;
62740;SDS011;48790;55.656;37.702;2022-09-13T01:04:29;19.38;;;11.18;;
62740;SDS011;48790;55.656;37.702;2022-09-13T01:06:59;14.73;;;10.55;;
62740;SDS011;48790;55.656;37.702;2022-09-13T01:09:26;21.98;;;11.10;;
62740;SDS011;48790;55.656;37.702;2022-09-13T01:11:55;15.35;;;9.77;;
62740;SDS011;48790;55.656;37.702;2022-09-13T01:14:29;15.00;;;9.48;;
62740;SDS011;48790;55.656;37.702;2022-09-13T01:16:56;15.43;;;10.38;;
62740;SDS011;48790;55.656;37.702;2022-09-13T01:19:23;20.08;;;10.23;;
62740;SDS011;48790;55.656;37.702;2022-09-13T01:24:32;22.50;;;9.55;;
62740;SDS011;48790;55.656;37.702;2022-09-13T01:27:14;17.98;;;9.82;;
62740;SDS011;48790;55.656;37.702;2022-09-13T01:35:12;17.95;;;9.38;;
62740;SDS011;48790;55.656;37.702;2022-09-13T01:40:41;15.55;;;9.07;;
62740;SDS011;48790;55.656;37.702;2022-09-13T01:43:23;18.02;;;9.77;;
62740;SDS011;48790;55.656;37.702;2022-09-13T01:48:38;15.77;;;8.98;;
62740;SDS011;48790;55.656;37.702;2022-09-13T01:51:26;14.52;;;8.95;;
62740;SDS011;48790;55.656;37.702;2022-09-13T02:01:56;23.95;;;14.32;;
62740;SDS011;48790;55.656;37.702;2022-09-13T02:04:25;24.67;;;15.00;;
62740;SDS011;48790;55.656;37.702;2022-09-13T02:07:02;37.78;;;21.33;;
62740;SDS011;48790;55.656;37.702;2022-09-13T02:09:31;43.95;;;25.52;;
62740;SDS011;48790;55.656;37.702;2022-09-13T02:12:02;48.65;;;27.42;;
62740;SDS011;48790;55.656;37.702;2022-09-13T02:15:09;52.58;;;28.52;;
62740;SDS011;48790;55.656;37.702;2022-09-13T02:17:38;51.30;;;29.20;;
62740;SDS011;48790;55.656;37.702;2022-09-13T02:20:15;53.88;;;30.10;;
62740;SDS011;48790;55.656;37.702;2022-09-13T02:22:44;54.88;;;28.65;;
62740;SDS011;48790;55.656;37.702;2022-09-13T02:25:12;57.17;;;29.10;;
62740;SDS011;48790;55.656;37.702;2022-09-13T02:27:39;53.70;;;28.05;;
62740;SDS011;48790;55.656;37.702;2022-09-13T02:30:06;47.88;;;24.90;;
62740;SDS011;48790;55.656;37.702;2022-09-13T02:32:37;47.13;;;23.95;;
62740;SDS011;48790;55.656;37.702;2022-09-13T02:37:31;37.58;;;20.23;;
62740;SDS011;48790;55.656;37.702;2022-09-13T02:40:03;32.35;;;17.67;;
62740;SDS011;48790;55.656;37.702;2022-09-13T02:45:00;24.77;;;14.82;;
62740;SDS011;48790;55.656;37.702;2022-09-13T03:00:11;19.58;;;11.63;;
62740;SDS011;48790;55.656;37.702;2022-09-13T03:02:38;24.17;;;12.48;;
62740;SDS011;48790;55.656;37.702;2022-09-13T03:05:06;19.88;;;11.82;;
62740;SDS011;48790;55.656;37.702;2022-09-13T03:07:32;19.98;;;11.77;;
62740;SDS011;48790;55.656;37.702;2022-09-13T03:10:03;22.80;;;12.23;;
62740;SDS011;48790;55.656;37.702;2022-09-13T03:27:53;22.55;;;11.95;;
62740;SDS011;48790;55.656;37.702;2022-09-13T03:30:21;22.15;;;11.10;;
62740;SDS011;48790;55.656;37.702;2022-09-13T03:32:59;21.98;;;11.13;;
62740;SDS011;48790;55.656;37.702;2022-09-13T03:37:55;18.25;;;11.32;;
62740;SDS011;48790;55.656;37.702;2022-09-13T03:42:52;17.60;;;10.57;;
62740;SDS011;48790;55.656;37.702;2022-09-13T03:45:20;23.67;;;11.50;;
62740;SDS011;48790;55.656;37.702;2022-09-13T03:47:48;20.00;;;11.00;;
62740;SDS011;48790;55.656;37.702;2022-09-13T03:50:18;22.05;;;11.20;;
62740;SDS011;48790;55.656;37.702;2022-09-13T03:52:45;18.38;;;10.85;;
62740;SDS011;48790;55.656;37.702;2022-09-13T03:55:12;22.48;;;10.88;;
62740;SDS011;48790;55.656;37.702;2022-09-13T03:57:38;21.52;;;10.77;;
62740;SDS011;48790;55.656;37.702;2022-09-13T04:00:04;22.13;;;10.23;;
62740;SDS011;48790;55.656;37.702;2022-09-13T04:02:37;19.98;;;11.10;;
62740;SDS011;48790;55.656;37.702;2022-09-13T04:05:03;26.63;;;10.43;;
62740;SDS011;48790;55.656;37.702;2022-09-13T04:07:29;21.55;;;10.43;;
62740;SDS011;48790;55.656;37.702;2022-09-13T04:09:55;21.02;;;10.85;;
62740;SDS011;48790;55.656;37.702;2022-09-13T04:12:20;18.20;;;11.50;;
62740;SDS011;48790;55.656;37.702;2022-09-13T04:14:46;23.45;;;10.75;;
62740;SDS011;48790;55.656;37.702;2022-09-13T04:17:12;16.10;;;10.40;;
62740;SDS011;48790;55.656;37.702;2022-09-13T04:19:38;22.30;;;10.98;;
62740;SDS011;48790;55.656;37.702;2022-09-13T04:22:04;22.60;;;10.95;;
62740;SDS011;48790;55.656;37.702;2022-09-13T04:24:30;24.92;;;11.50;;
62740;SDS011;48790;55.656;37.702;2022-09-13T04:26:56;26.67;;;11.77;;
62740;SDS011;48790;55.656;37.702;2022-09-13T04:29:23;22.20;;;11.00;;
62740;SDS011;48790;55.656;37.702;2022-09-13T04:31:49;28.08;;;11.75;;
62740;SDS011;48790;55.656;37.702;2022-09-13T04:34:16;23.98;;;11.45;;
62740;SDS011;48790;55.656;37.702;2022-09-13T04:36:43;24.98;;;11.60;;
62740;SDS011;48790;55.656;37.702;2022-09-13T04:39:09;25.58;;;12.90;;
62740;SDS011;48790;55.656;37.702;2022-09-13T04:41:35;25.92;;;12.38;;
62740;SDS011;48790;55.656;37.702;2022-09-13T04:44:01;26.63;;;11.93;;
62740;SDS011;48790;55.656;37.702;2022-09-13T04:46:27;25.95;;;12.07;;
62740;SDS011;48790;55.656;37.702;2022-09-13T04:48:54;27.00;;;12.90;;
62740;SDS011;48790;55.656;37.702;2022-09-13T04:51:20;19.95;;;12.02;;
62740;SDS011;48790;55.656;37.702;2022-09-13T04:53:52;29.45;;;13.07;;
62740;SDS011;48790;55.656;37.702;2022-09-13T04:56:23;25.48;;;13.00;;
62740;SDS011;48790;55.656;37.702;2022-09-13T04:58:49;22.73;;;12.18;;
62740;SDS011;48790;55.656;37.702;2022-09-13T05:01:18;33.00;;;15.50;;
62740;SDS011;48790;55.656;37.702;2022-09-13T05:03:44;26.60;;;14.18;;
62740;SDS011;48790;55.656;37.702;2022-09-13T05:06:11;28.75;;;13.15;;
62740;SDS011;48790;55.656;37.702;2022-09-13T05:08:38;30.55;;;13.57;;
62740;SDS011;48790;55.656;37.702;2022-09-13T05:11:05;26.27;;;12.98;;
62740;SDS011;48790;55.656;37.702;2022-09-13T05:13:31;26.58;;;13.50;;
62740;SDS011;48790;55.656;37.702;2022-09-13T05:15:59;26.05;;;13.40;;
62740;SDS011;48790;55.656;37.702;2022-09-13T05:18:25;34.03;;;13.43;;
62740;SDS011;48790;55.656;37.702;2022-09-13T05:20:53;24.15;;;13.50;;
62740;SDS011;48790;55.656;37.702;2022-09-13T05:23:21;31.33;;;13.20;;
62740;SDS011;48790;55.656;37.702;2022-09-13T05:33:31;27.83;;;13.80;;
62740;SDS011;48790;55.656;37.702;2022-09-13T05:35:57;24.23;;;12.18;;
62740;SDS011;48790;55.656;37.702;2022-09-13T05:38:23;31.33;;;12.43;;
62740;SDS011;48790;55.656;37.702;2022-09-13T05:40:56;21.17;;;11.63;;
62740;SDS011;48790;55.656;37.702;2022-09-13T05:43:22;22.23;;;11.43;;
62740;SDS011;48790;55.656;37.702;2022-09-13T05:45:48;27.60;;;11.57;;
62740;SDS011;48790;55.656;37.702;2022-09-13T05:48:14;28.80;;;11.60;;
62740;SDS011;48790;55.656;37.702;2022-09-13T05:50:43;25.15;;;12.85;;
62740;SDS011;48790;55.656;37.702;2022-09-13T05:53:09;22.60;;;12.48;;
62740;SDS011;48790;55.656;37.702;2022-09-13T05:55:35;29.60;;;12.55;;
62740;SDS011;48790;55.656;37.702;2022-09-13T05:58:01;22.38;;;12.20;;
62740;SDS011;48790;55.656;37.702;2022-09-13T06:00:27;29.25;;;13.40;;
62740;SDS011;48790;55.656;37.702;2022-09-13T06:02:54;26.77;;;12.65;;
62740;SDS011;48790;55.656;37.702;2022-09-13T06:05:20;34.92;;;12.38;;
62740;SDS011;48790;55.656;37.702;2022-09-13T06:07:46;34.47;;;12.30;;
62740;SDS011;48790;55.656;37.702;2022-09-13T06:10:12;26.27;;;12.13;;
62740;SDS011;48790;55.656;37.702;2022-09-13T06:12:39;28.83;;;13.80;;
62740;SDS011;48790;55.656;37.702;2022-09-13T06:15:06;24.92;;;11.43;;
62740;SDS011;48790;55.656;37.702;2022-09-13T06:17:32;23.77;;;12.02;;
62740;SDS011;48790;55.656;37.702;2022-09-13T06:20:01;22.20;;;11.10;;
62740;SDS011;48790;55.656;37.702;2022-09-13T06:22:28;20.70;;;11.43;;
62740;SDS011;48790;55.656;37.702;2022-09-13T06:24:58;26.77;;;12.35;;
62740;SDS011;48790;55.656;37.702;2022-09-13T06:27:24;27.90;;;12.02;;
62740;SDS011;48790;55.656;37.702;2022-09-13T06:29:49;26.23;;;12.10;;
62740;SDS011;48790;55.656;37.702;2022-09-13T06:32:15;20.92;;;11.77;;
62740;SDS011;48790;55.656;37.702;2022-09-13T06:34:41;20.90;;;11.80;;
62740;SDS011;48790;55.656;37.702;2022-09-13T06:37:07;20.35;;;11.88;;
62740;SDS011;48790;55.656;37.702;2022-09-13T06:39:33;24.88;;;11.20;;
62740;SDS011;48790;55.656;37.702;2022-09-13T06:42:00;26.35;;;10.80;;
62740;SDS011;48790;55.656;37.702;2022-09-13T06:44:38;27.13;;;11.32;;
62740;SDS011;48790;55.656;37.702;2022-09-13T06:47:03;26.20;;;11.73;;
62740;SDS011;48790;55.656;37.702;2022-09-13T06:49:29;29.40;;;11.25;;
62740;SDS011;48790;55.656;37.702;2022-09-13T06:51:56;21.15;;;10.98;;
62740;SDS011;48790;55.656;37.702;2022-09-13T06:54:22;26.85;;;11.32;;
62740;SDS011;48790;55.656;37.702;2022-09-13T06:56:48;27.73;;;11.30;;
62740;SDS011;48790;55.656;37.702;2022-09-13T06:59:14;19.67;;;10.88;;
62740;SDS011;48790;55.656;37.702;2022-09-13T07:01:41;29.65;;;12.45;;
62740;SDS011;48790;55.656;37.702;2022-09-13T07:04:09;24.25;;;11.45;;
62740;SDS011;48790;55.656;37.702;2022-09-13T07:06:37;30.77;;;11.43;;
62740;SDS011;48790;55.656;37.702;2022-09-13T07:09:04;24.33;;;11.27;;
62740;SDS011;48790;55.656;37.702;2022-09-13T07:11:32;20.73;;;11.20;;
62740;SDS011;48790;55.656;37.702;2022-09-13T07:13:58;20.58;;;12.25;;
62740;SDS011;48790;55.656;37.702;2022-09-13T07:16:29;34.25;;;12.40;;
62740;SDS011;48790;55.656;37.702;2022-09-13T07:18:59;22.98;;;13.13;;
62740;SDS011;48790;55.656;37.702;2022-09-13T07:21:25;27.75;;;12.38;;
62740;SDS011;48790;55.656;37.702;2022-09-13T07:23:52;17.63;;;10.43;;
62740;SDS011;48790;55.656;37.702;2022-09-13T07:26:18;25.48;;;10.68;;
62740;SDS011;48790;55.656;37.702;2022-09-13T07:28:45;31.15;;;10.98;;
62740;SDS011;48790;55.656;37.702;2022-09-13T07:33:37;23.88;;;10.98;;
62740;SDS011;48790;55.656;37.702;2022-09-13T07:36:04;31.08;;;11.07;;
62740;SDS011;48790;55.656;37.702;2022-09-13T07:38:34;24.95;;;11.50;;
62740;SDS011;48790;55.656;37.702;2022-09-13T07:41:01;27.63;;;10.70;;
62740;SDS011;48790;55.656;37.702;2022-09-13T07:43:29;18.35;;;10.27;;
62740;SDS011;48790;55.656;37.702;2022-09-13T07:46:05;25.48;;;11.98;;
62740;SDS011;48790;55.656;37.702;2022-09-13T07:48:32;20.50;;;10.68;;
62740;SDS011;48790;55.656;37.702;2022-09-13T07:50:59;26.42;;;11.63;;
62740;SDS011;48790;55.656;37.702;2022-09-13T07:53:27;24.55;;;10.80;;
62740;SDS011;48790;55.656;37.702;2022-09-13T07:55:58;22.02;;;10.07;;
62740;SDS011;48790;55.656;37.702;2022-09-13T07:58:24;22.50;;;10.77;;
62740;SDS011;48790;55.656;37.702;2022-09-13T08:00:50;26.42;;;10.23;;
62740;SDS011;48790;55.656;37.702;2022-09-13T08:03:16;19.08;;;9.93;;
62740;SDS011;48790;55.656;37.702;2022-09-13T08:05:44;18.25;;;9.57;;
62740;SDS011;48790;55.656;37.702;2022-09-13T08:08:10;21.45;;;8.43;;
62740;SDS011;48790;55.656;37.702;2022-09-13T08:10:36;18.15;;;7.80;;
62740;SDS011;48790;55.656;37.702;2022-09-13T08:13:02;16.90;;;7.20;;
62740;SDS011;48790;55.656;37.702;2022-09-13T08:15:28;24.75;;;7.53;;
62740;SDS011;48790;55.656;37.702;2022-09-13T08:17:55;15.20;;;7.78;;
62740;SDS011;48790;55.656;37.702;2022-09-13T08:20:20;16.45;;;7.50;;
62740;SDS011;48790;55.656;37.702;2022-09-13T08:22:47;23.25;;;6.95;;
62740;SDS011;48790;55.656;37.702;2022-09-13T08:25:13;11.43;;;6.88;;
62740;SDS011;48790;55.656;37.702;2022-09-13T08:27:39;16.48;;;7.20;;
62740;SDS011;48790;55.656;37.702;2022-09-13T08:30:05;15.77;;;7.20;;
62740;SDS011;48790;55.656;37.702;2022-09-13T08:32:31;15.52;;;6.75;;
62740;SDS011;48790;55.656;37.702;2022-09-13T08:34:58;17.25;;;7.50;;
62740;SDS011;48790;55.656;37.702;2022-09-13T08:37:23;10.15;;;6.55;;
62740;SDS011;48790;55.656;37.702;2022-09-13T08:39:49;17.17;;;7.18;;
62740;SDS011;48790;55.656;37.702;2022-09-13T08:42:21;24.45;;;7.45;;
62740;SDS011;48790;55.656;37.702;2022-09-13T08:44:51;15.38;;;6.70;;
62740;SDS011;48790;55.656;37.702;2022-09-13T08:50:10;17.27;;;6.65;;
62740;SDS011;48790;55.656;37.702;2022-09-13T09:00:28;11.57;;;5.00;;
62740;SDS011;48790;55.656;37.702;2022-09-13T09:05:48;8.50;;;4.80;;
62740;SDS011;48790;55.656;37.702;2022-09-13T09:08:29;8.63;;;5.00;;
62740;SDS011;48790;55.656;37.702;2022-09-13T09:10:56;14.10;;;5.10;;
62740;SDS011;48790;55.656;37.702;2022-09-13T09:16:16;12.18;;;4.57;;
62740;SDS011;48790;55.656;37.702;2022-09-13T09:18:45;13.25;;;5.65;;
62740;SDS011;48790;55.656;37.702;2022-09-13T09:21:17;11.23;;;4.38;;
62740;SDS011;48790;55.656;37.702;2022-09-13T09:23:50;9.45;;;4.35;;
62740;SDS011;48790;55.656;37.702;2022-09-13T09:26:24;9.07;;;4.68;;
62740;SDS011;48790;55.656;37.702;2022-09-13T09:28:54;8.00;;;4.10;;
62740;SDS011;48790;55.656;37.702;2022-09-13T09:36:42;7.25;;;4.35;;
62740;SDS011;48790;55.656;37.702;2022-09-13T09:39:10;16.02;;;4.45;;
62740;SDS011;48790;55.656;37.702;2022-09-13T09:41:36;9.93;;;4.47;;
62740;SDS011;48790;55.656;37.702;2022-09-13T09:44:13;8.55;;;4.47;;
62740;SDS011;48790;55.656;37.702;2022-09-13T09:46:41;10.35;;;4.50;;
62740;SDS011;48790;55.656;37.702;2022-09-13T09:49:19;12.73;;;4.38;;
62740;SDS011;48790;55.656;37.702;2022-09-13T09:52:06;10.88;;;4.68;;
62740;SDS011;48790;55.656;37.702;2022-09-13T09:54:33;5.35;;;3.90;;
62740;SDS011;48790;55.656;37.702;2022-09-13T09:56:59;4.05;;;3.33;;
62740;SDS011;48790;55.656;37.702;2022-09-13T09:59:27;15.75;;;3.90;;
62740;SDS011;48790;55.656;37.702;2022-09-13T10:01:53;8.82;;;3.30;;
62740;SDS011;48790;55.656;37.702;2022-09-13T10:04:22;9.23;;;3.05;;
62740;SDS011;48790;55.656;37.702;2022-09-13T10:06:48;5.90;;;3.10;;
62740;SDS011;48790;55.656;37.702;2022-09-13T10:09:16;18.45;;;2.88;;
62740;SDS011;48790;55.656;37.702;2022-09-13T10:11:47;8.77;;;2.83;;
62740;SDS011;48790;55.656;37.702;2022-09-13T10:17:05;12.27;;;2.87;;
62740;SDS011;48790;55.656;37.702;2022-09-13T10:19:31;20.40;;;3.13;;
62740;SDS011;48790;55.656;37.702;2022-09-13T10:22:04;8.30;;;2.67;;
62740;SDS011;48790;55.656;37.702;2022-09-13T10:24:33;18.88;;;3.35;;
62740;SDS011;48790;55.656;37.702;2022-09-13T10:26:59;10.23;;;2.80;;
62740;SDS011;48790;55.656;37.702;2022-09-13T10:29:28;9.40;;;3.30;;
62740;SDS011;48790;55.656;37.702;2022-09-13T10:31:55;9.18;;;3.20;;
62740;SDS011;48790;55.656;37.702;2022-09-13T10:34:28;8.77;;;3.17;;
62740;SDS011;48790;55.656;37.702;2022-09-13T10:37:15;19.20;;;2.95;;
62740;SDS011;48790;55.656;37.702;2022-09-13T10:42:15;9.63;;;3.42;;
62740;SDS011;48790;55.656;37.702;2022-09-13T10:44:50;16.58;;;3.38;;
62740;SDS011;48790;55.656;37.702;2022-09-13T10:49:50;6.88;;;2.97;;
62740;SDS011;48790;55.656;37.702;2022-09-13T10:57:41;21.73;;;3.67;;
62740;SDS011;48790;55.656;37.702;2022-09-13T11:00:08;7.95;;;3.00;;
62740;SDS011;48790;55.656;37.702;2022-09-13T11:02:45;8.52;;;2.80;;
62740;SDS011;48790;55.656;37.702;2022-09-13T11:10:23;11.15;;;3.10;;
62740;SDS011;48790;55.656;37.702;2022-09-13T11:18:21;8.15;;;3.30;;
62740;SDS011;48790;55.656;37.702;2022-09-13T11:31:44;8.10;;;3.05;;
62740;SDS011;48790;55.656;37.702;2022-09-13T11:37:04;8.75;;;2.80;;
62740;SDS011;48790;55.656;37.702;2022-09-13T11:45:25;8.93;;;3.50;;
62740;SDS011;48790;55.656;37.702;2022-09-13T11:55:40;9.98;;;3.15;;
62740;SDS011;48790;55.656;37.702;2022-09-13T12:01:04;6.60;;;2.60;;
62740;SDS011;48790;55.656;37.702;2022-09-13T12:06:04;12.30;;;2.92;;
62740;SDS011;48790;55.656;37.702;2022-09-13T12:08:31;11.23;;;2.72;;
62740;SDS011;48790;55.656;37.702;2022-09-13T12:11:10;11.55;;;2.92;;
62740;SDS011;48790;55.656;37.702;2022-09-13T12:13:42;11.20;;;3.38;;
62740;SDS011;48790;55.656;37.702;2022-09-13T12:18:36;13.65;;;3.15;;
62740;SDS011;48790;55.656;37.702;2022-09-13T12:21:12;12.98;;;2.90;;
62740;SDS011;48790;55.656;37.702;2022-09-13T12:23:50;11.50;;;2.60;;
62740;SDS011;48790;55.656;37.702;2022-09-13T12:29:10;9.85;;;2.60;;
62740;SDS011;48790;55.656;37.702;2022-09-13T12:31:38;10.85;;;2.50;;
62740;SDS011;48790;55.656;37.702;2022-09-13T12:34:08;9.88;;;2.70;;
62740;SDS011;48790;55.656;37.702;2022-09-13T12:46:56;5.38;;;3.17;;
62740;SDS011;48790;55.656;37.702;2022-09-13T12:57:11;9.43;;;3.50;;
62740;SDS011;48790;55.656;37.702;2022-09-13T13:02:31;9.65;;;2.75;;
62740;SDS011;48790;55.656;37.702;2022-09-13T13:04:59;8.38;;;2.80;;
62740;SDS011;48790;55.656;37.702;2022-09-13T13:07:25;8.50;;;3.00;;
62740;SDS011;48790;55.656;37.702;2022-09-13T13:09:52;9.45;;;3.15;;
62740;SDS011;48790;55.656;37.702;2022-09-13T13:14:50;9.27;;;2.90;;
62740;SDS011;48790;55.656;37.702;2022-09-13T13:17:37;4.75;;;3.17;;
62740;SDS011;48790;55.656;37.702;2022-09-13T13:22:49;4.25;;;2.80;;
62740;SDS011;48790;55.656;37.702;2022-09-13T13:25:32;12.73;;;2.83;;
62740;SDS011;48790;55.656;37.702;2022-09-13T13:27:58;5.97;;;3.08;;
62740;SDS011;48790;55.656;37.702;2022-09-13T13:33:14;17.85;;;3.05;;
62740;SDS011;48790;55.656;37.702;2022-09-13T13:35:41;25.70;;;3.45;;
62740;SDS011;48790;55.656;37.702;2022-09-13T13:40:47;10.60;;;2.80;;
62740;SDS011;48790;55.656;37.702;2022-09-13T13:43:32;9.10;;;2.85;;
62740;SDS011;48790;55.656;37.702;2022-09-13T13:48:34;11.25;;;2.83;;
62740;SDS011;48790;55.656;37.702;2022-09-13T13:53:40;9.45;;;4.03;;
62740;SDS011;48790;55.656;37.702;2022-09-13T13:56:14;7.90;;;3.25;;
62740;SDS011;48790;55.656;37.702;2022-09-13T13:58:49;7.95;;;3.40;;
62740;SDS011;48790;55.656;37.702;2022-09-13T14:01:20;8.20;;;3.50;;
62740;SDS011;48790;55.656;37.702;2022-09-13T14:06:54;10.55;;;3.38;;
62740;SDS011;48790;55.656;37.702;2022-09-13T14:19:43;8.65;;;3.20;;
62740;SDS011;48790;55.656;37.702;2022-09-13T14:24:38;9.85;;;3.25;;
62740;SDS011;48790;55.656;37.702;2022-09-13T14:27:09;7.95;;;3.65;;
62740;SDS011;48790;55.656;37.702;2022-09-13T14:29:37;7.87;;;3.23;;
62740;SDS011;48790;55.656;37.702;2022-09-13T14:32:05;9.40;;;3.38;;
62740;SDS011;48790;55.656;37.702;2022-09-13T14:34:35;8.52;;;3.40;;
62740;SDS011;48790;55.656;37.702;2022-09-13T14:37:15;10.43;;;3.30;;
62740;SDS011;48790;55.656;37.702;2022-09-13T14:39:59;11.68;;;3.60;;
62740;SDS011;48790;55.656;37.702;2022-09-13T14:42:25;9.48;;;3.35;;
62740;SDS011;48790;55.656;37.702;2022-09-13T14:44:51;17.88;;;3.58;;
62740;SDS011;48790;55.656;37.702;2022-09-13T14:47:25;12.50;;;3.35;;
62740;SDS011;48790;55.656;37.702;2022-09-13T14:49:55;9.93;;;3.75;;
62740;SDS011;48790;55.656;37.702;2022-09-13T14:52:25;6.80;;;3.40;;
62740;SDS011;48790;55.656;37.702;2022-09-13T14:54:52;18.23;;;3.88;;
62740;SDS011;48790;55.656;37.702;2022-09-13T14:57:21;7.68;;;3.72;;
62740;SDS011;48790;55.656;37.702;2022-09-13T14:59:51;9.95;;;3.83;;
62740;SDS011;48790;55.656;37.702;2022-09-13T15:02:19;7.10;;;4.13;;
62740;SDS011;48790;55.656;37.702;2022-09-13T15:04:55;9.73;;;3.38;;
62740;SDS011;48790;55.656;37.702;2022-09-13T15:07:26;10.60;;;3.92;;
62740;SDS011;48790;55.656;37.702;2022-09-13T15:10:41;11.15;;;3.45;;
62740;SDS011;48790;55.656;37.702;2022-09-13T15:17:56;6.57;;;3.47;;
62740;SDS011;48790;55.656;37.702;2022-09-13T15:20:23;6.70;;;3.63;;
62740;SDS011;48790;55.656;37.702;2022-09-13T15:22:49;14.25;;;3.85;;
62740;SDS011;48790;55.656;37.702;2022-09-13T15:25:24;8.85;;;3.72;;
62740;SDS011;48790;55.656;37.702;2022-09-13T15:27:52;9.13;;;3.50;;
62740;SDS011;48790;55.656;37.702;2022-09-13T15:30:19;15.05;;;4.97;;
62740;SDS011;48790;55.656;37.702;2022-09-13T15:32:45;11.20;;;4.18;;
62740;SDS011;48790;55.656;37.702;2022-09-13T15:35:22;10.80;;;3.85;;
62740;SDS011;48790;55.656;37.702;2022-09-13T15:37:57;12.93;;;3.55;;
62740;SDS011;48790;55.656;37.702;2022-09-13T15:40:23;12.35;;;3.85;;
62740;SDS011;48790;55.656;37.702;2022-09-13T15:42:50;11.77;;;4.25;;
62740;SDS011;48790;55.656;37.702;2022-09-13T15:45:17;8.57;;;3.95;;
62740;SDS011;48790;55.656;37.702;2022-09-13T15:47:44;10.40;;;4.07;;
62740;SDS011;48790;55.656;37.702;2022-09-13T15:50:17;11.98;;;4.35;;
62740;SDS011;48790;55.656;37.702;2022-09-13T15:52:43;5.95;;;3.85;;
62740;SDS011;48790;55.656;37.702;2022-09-13T15:55:10;11.13;;;3.85;;
62740;SDS011;48790;55.656;37.702;2022-09-13T15:57:36;6.80;;;3.97;;
62740;SDS011;48790;55.656;37.702;2022-09-13T16:00:02;8.55;;;3.63;;
62740;SDS011;48790;55.656;37.702;2022-09-13T16:02:35;10.15;;;3.67;;
62740;SDS011;48790;55.656;37.702;2022-09-13T16:05:01;7.72;;;4.03;;
62740;SDS011;48790;55.656;37.702;2022-09-13T16:07:28;7.63;;;4.05;;
62740;SDS011;48790;55.656;37.702;2022-09-13T16:09:54;9.75;;;4.50;;
62740;SDS011;48790;55.656;37.702;2022-09-13T16:12:20;6.10;;;4.15;;
62740;SDS011;48790;55.656;37.702;2022-09-13T16:14:48;9.02;;;4.28;;
62740;SDS011;48790;55.656;37.702;2022-09-13T16:17:21;9.05;;;4.60;;
62740;SDS011;48790;55.656;37.702;2022-09-13T16:19:48;10.95;;;4.78;;
62740;SDS011;48790;55.656;37.702;2022-09-13T16:22:15;7.50;;;4.40;;
62740;SDS011;48790;55.656;37.702;2022-09-13T16:24:41;7.32;;;4.63;;
62740;SDS011;48790;55.656;37.702;2022-09-13T16:27:08;5.40;;;3.80;;
62740;SDS011;48790;55.656;37.702;2022-09-13T16:29:34;8.60;;;4.15;;
62740;SDS011;48790;55.656;37.702;2022-09-13T16:32:00;10.63;;;3.88;;
62740;SDS011;48790;55.656;37.702;2022-09-13T16:34:27;8.85;;;4.47;;
62740;SDS011;48790;55.656;37.702;2022-09-13T16:36:53;10.88;;;4.13;;
62740;SDS011;48790;55.656;37.702;2022-09-13T16:39:19;7.45;;;5.05;;
62740;SDS011;48790;55.656;37.702;2022-09-13T16:41:44;8.25;;;5.00;;
62740;SDS011;48790;55.656;37.702;2022-09-13T16:44:10;7.22;;;4.90;;
62740;SDS011;48790;55.656;37.702;2022-09-13T16:46:36;9.20;;;4.47;;
62740;SDS011;48790;55.656;37.702;2022-09-13T16:49:02;5.90;;;4.40;;
62740;SDS011;48790;55.656;37.702;2022-09-13T16:51:28;5.88;;;4.20;;
62740;SDS011;48790;55.656;37.702;2022-09-13T16:53:54;12.10;;;4.60;;
62740;SDS011;48790;55.656;37.702;2022-09-13T16:56:21;11.52;;;4.18;;
62740;SDS011;48790;55.656;37.702;2022-09-13T16:58:47;7.50;;;4.47;;
62740;SDS011;48790;55.656;37.702;2022-09-13T17:01:14;12.10;;;4.40;;
62740;SDS011;48790;55.656;37.702;2022-09-13T17:03:40;6.10;;;4.20;;
62740;SDS011;48790;55.656;37.702;2022-09-13T17:06:07;9.50;;;4.28;;
62740;SDS011;48790;55.656;37.702;2022-09-13T17:08:38;4.93;;;3.70;;
62740;SDS011;48790;55.656;37.702;2022-09-13T17:11:08;7.53;;;3.47;;
62740;SDS011;48790;55.656;37.702;2022-09-13T17:13:35;9.30;;;4.20;;
62740;SDS011;48790;55.656;37.702;2022-09-13T17:27:57;6.93;;;4.53;;
62740;SDS011;48790;55.656;37.702;2022-09-13T17:30:23;11.68;;;4.93;;
62740;SDS011;48790;55.656;37.702;2022-09-13T17:32:50;7.60;;;4.80;;
62740;SDS011;48790;55.656;37.702;2022-09-13T17:35:16;6.90;;;4.30;;
62740;SDS011;48790;55.656;37.702;2022-09-13T17:37:42;6.85;;;5.13;;
62740;SDS011;48790;55.656;37.702;2022-09-13T17:40:08;7.03;;;4.28;;
62740;SDS011;48790;55.656;37.702;2022-09-13T17:42:34;6.93;;;4.93;;
62740;SDS011;48790;55.656;37.702;2022-09-13T17:45:01;9.20;;;5.03;;
62740;SDS011;48790;55.656;37.702;2022-09-13T17:47:29;6.78;;;5.15;;
62740;SDS011;48790;55.656;37.702;2022-09-13T17:49:58;8.98;;;5.30;;
62740;SDS011;48790;55.656;37.702;2022-09-13T17:52:24;10.63;;;5.45;;
62740;SDS011;48790;55.656;37.702;2022-09-13T17:54:50;6.43;;;3.92;;
62740;SDS011;48790;55.656;37.702;2022-09-13T17:57:17;7.10;;;4.93;;
62740;SDS011;48790;55.656;37.702;2022-09-13T17:59:42;8.23;;;5.00;;
62740;SDS011;48790;55.656;37.702;2022-09-13T18:02:08;6.50;;;4.78;;
62740;SDS011;48790;55.656;37.702;2022-09-13T18:04:34;8.55;;;4.90;;
62740;SDS011;48790;55.656;37.702;2022-09-13T18:07:00;9.23;;;5.80;;
62740;SDS011;48790;55.656;37.702;2022-09-13T18:09:26;7.10;;;5.35;;
62740;SDS011;48790;55.656;37.702;2022-09-13T18:11:52;11.32;;;5.90;;